Terminal Aerodrome Forecast
Issued by NWS

Home | Current Version | Previous Version | Graphics & Text | Print | Product List | Glossary On
Versions: 1 2 3 4 5 6 7 8 9 10 11 12 13 14 15 16 17 18 19 20 21 22 23 24 25 26 27 28 29 30 31 32 33 34
000
FTUS45 KGGW 240500
TAFOLF
TAF
KOLF 240520Z 2406/2506 07012KT P6SM VCSH OVC090
      TEMPO 2408/2410 4SM RA OVC020
     FM241200 30011KT 5SM -SN OVC025
     FM241800 30016KT P6SM VCSH OVC035
     FM250000 33016KT P6SM BKN060=

USA.gov is the U.S. government's official web portal to all federal, state and local government web resources and services.